Terminal Aerodrome Forecast
Issued by NWS

Home | Current Version | Previous Version | Text Only | Print | Product List | Glossary On
Versions: 1 2 3 4 5 6 7 8 9 10 11 12 13
000
FTUS46 KHNX 191148
TAFFAT
TAF
KFAT 191148Z 1912/2012 VRB03KT P6SM BKN130
     FM192000 13005KT P6SM BKN080
     FM192300 13007KT P6SM -RA OVC060
     FM200200 VRB04KT P6SM VCSH BKN040
     FM200900 VRB03KT 4SM BR BKN025
      TEMPO 2009/2012 2SM BR BKN007=

USA.gov is the U.S. government's official web portal to all federal, state and local government web resources and services.